createdAt,value
2018-11-14T00:00:19.568Z,10.63
2018-11-14T00:02:47.710Z,8.63
2018-11-14T00:05:16.958Z,14.77
2018-11-14T00:07:45.131Z,13.43
2018-11-14T00:10:13.378Z,11.97
2018-11-14T00:12:41.497Z,13.10
2018-11-14T00:15:11.952Z,14.43
2018-11-14T00:17:40.174Z,15.03
2018-11-14T00:20:09.286Z,16.40
2018-11-14T00:22:37.451Z,13.27
2018-11-14T00:25:05.858Z,17.17
2018-11-14T00:27:34.103Z,10.93
2018-11-14T00:30:02.438Z,10.27
2018-11-14T00:32:31.032Z,11.07
2018-11-14T00:34:59.916Z,9.17
2018-11-14T00:37:27.689Z,10.73
2018-11-14T00:39:55.856Z,7.37
2018-11-14T00:42:24.046Z,8.53
2018-11-14T00:44:53.291Z,9.67
2018-11-14T00:47:21.513Z,10.53
2018-11-14T00:49:49.769Z,10.87
2018-11-14T00:52:17.932Z,9.43
2018-11-14T00:54:47.064Z,11.93
2018-11-14T00:57:16.340Z,8.80
2018-11-14T00:59:46.572Z,16.77
2018-11-14T01:02:14.763Z,13.13
2018-11-14T01:04:42.936Z,11.97
2018-11-14T01:07:11.127Z,13.43
2018-11-14T01:09:40.080Z,15.07
2018-11-14T01:12:08.235Z,16.93
2018-11-14T01:14:36.889Z,12.50
2018-11-14T01:17:05.476Z,10.23
2018-11-14T01:19:33.622Z,15.87
2018-11-14T01:22:01.803Z,12.50
2018-11-14T01:24:29.972Z,10.43
2018-11-14T01:26:59.151Z,14.30
2018-11-14T01:29:27.241Z,11.37
2018-11-14T01:31:55.427Z,11.63
2018-11-14T01:34:23.579Z,9.47
2018-11-14T01:36:51.768Z,6.70
2018-11-14T01:39:19.930Z,8.93
2018-11-14T01:41:48.491Z,8.53
2018-11-14T01:44:16.650Z,10.47
2018-11-14T01:46:44.810Z,8.23
2018-11-14T01:49:13.759Z,8.83
2018-11-14T01:51:41.946Z,10.93
2018-11-14T01:54:10.152Z,9.00
2018-11-14T01:56:38.375Z,12.73
2018-11-14T01:59:07.362Z,10.20
2018-11-14T02:01:36.240Z,10.07
2018-11-14T02:04:04.596Z,8.40
2018-11-14T02:06:32.755Z,9.23
2018-11-14T02:09:00.918Z,9.77
2018-11-14T02:11:29.103Z,12.20
2018-11-14T02:13:57.286Z,11.00
2018-11-14T02:16:25.465Z,15.53
2018-11-14T02:18:53.709Z,11.63
2018-11-14T02:21:22.194Z,12.80
2018-11-14T02:23:50.370Z,12.30
2018-11-14T02:26:18.558Z,12.00
2018-11-14T02:28:46.723Z,11.50
2018-11-14T02:31:14.898Z,11.73
2018-11-14T02:33:43.070Z,18.67
2018-11-14T02:36:11.261Z,13.27
2018-11-14T02:38:39.419Z,10.57
2018-11-14T02:41:07.586Z,15.43
2018-11-14T02:43:35.779Z,11.77
2018-11-14T02:46:04.922Z,14.30
2018-11-14T02:48:33.095Z,10.43
2018-11-14T02:51:12.618Z,12.33
2018-11-14T02:53:40.842Z,13.30
2018-11-14T02:56:10.708Z,13.67
2018-11-14T02:58:38.958Z,13.47
2018-11-14T03:01:07.622Z,11.83
2018-11-14T03:03:35.823Z,11.37
2018-11-14T03:06:03.998Z,12.50
2018-11-14T03:08:32.185Z,11.17
2018-11-14T03:11:00.362Z,9.93
2018-11-14T03:13:28.517Z,10.27
2018-11-14T03:15:56.698Z,7.20
2018-11-14T03:18:24.875Z,10.40
2018-11-14T03:20:53.054Z,10.20
2018-11-14T03:23:21.475Z,8.93
2018-11-14T03:25:49.644Z,11.03
2018-11-14T03:28:17.818Z,8.60
2018-11-14T03:30:45.979Z,12.53
2018-11-14T03:33:14.154Z,14.37
2018-11-14T03:35:47.706Z,12.13
2018-11-14T03:38:15.874Z,8.97
2018-11-14T03:40:44.044Z,8.40
2018-11-14T03:43:12.215Z,8.87
2018-11-14T03:45:40.428Z,8.50
2018-11-14T03:48:08.989Z,8.90
2018-11-14T03:50:37.475Z,8.50
2018-11-14T03:53:06.039Z,9.20
2018-11-14T03:55:34.306Z,11.03
2018-11-14T03:58:02.547Z,32.40
2018-11-14T04:00:30.776Z,11.57
2018-11-14T04:02:58.943Z,13.30
2018-11-14T04:05:27.279Z,12.50
2018-11-14T04:07:55.435Z,9.33
2018-11-14T04:10:23.607Z,10.50
2018-11-14T04:12:52.030Z,9.20
2018-11-14T04:15:20.179Z,13.40
2018-11-14T04:17:48.362Z,7.23
2018-11-14T04:20:17.325Z,9.20
2018-11-14T04:22:46.111Z,8.73
2018-11-14T04:25:15.670Z,12.80
2018-11-14T04:27:44.739Z,8.67
2018-11-14T04:30:16.132Z,9.30
2018-11-14T04:32:45.137Z,7.77
2018-11-14T04:35:14.429Z,7.60
2018-11-14T04:37:42.608Z,9.13
2018-11-14T04:40:14.490Z,7.80
2018-11-14T04:42:42.683Z,12.03
2018-11-14T04:45:13.404Z,10.83
2018-11-14T04:47:41.998Z,9.13
2018-11-14T04:50:13.658Z,8.93
2018-11-14T04:52:41.938Z,10.93
2018-11-14T04:55:11.974Z,10.67
2018-11-14T04:57:40.644Z,7.70
2018-11-14T05:00:10.345Z,8.60
2018-11-14T05:02:40.147Z,9.03
2018-11-14T05:05:10.379Z,7.07
2018-11-14T05:07:38.870Z,9.93
2018-11-14T05:10:09.938Z,10.73
2018-11-14T05:12:38.152Z,8.87
2018-11-14T05:15:08.355Z,11.17
2018-11-14T05:17:36.554Z,7.33
2018-11-14T05:20:05.048Z,6.77
2018-11-14T05:22:33.211Z,14.60
2018-11-14T05:25:01.375Z,10.73
2018-11-14T05:27:31.598Z,17.77
2018-11-14T05:30:03.670Z,24.87
2018-11-14T05:32:31.830Z,17.10
2018-11-14T05:35:00.003Z,13.87
2018-11-14T05:37:28.189Z,9.07
2018-11-14T05:39:56.434Z,13.17
2018-11-14T05:42:25.724Z,11.63
2018-11-14T05:44:54.833Z,10.63
2018-11-14T05:47:23.930Z,25.53
2018-11-14T05:49:54.402Z,26.43
2018-11-14T05:52:22.632Z,32.30
2018-11-14T05:54:50.910Z,28.80
2018-11-14T05:57:19.074Z,16.17
2018-11-14T05:59:47.243Z,33.20
2018-11-14T06:02:15.411Z,56.20
2018-11-14T06:04:43.685Z,45.83
2018-11-14T06:07:12.257Z,42.10
2018-11-14T06:09:40.293Z,22.43
2018-11-14T06:12:08.503Z,29.57
2018-11-14T06:14:36.718Z,39.27
2018-11-14T06:17:05.020Z,35.30
2018-11-14T06:19:33.238Z,33.33
2018-11-14T06:22:01.611Z,21.93
2018-11-14T06:24:29.700Z,16.57
2018-11-14T06:26:57.870Z,25.57
2018-11-14T06:29:26.134Z,18.70
2018-11-14T06:31:54.615Z,30.33
2018-11-14T06:34:22.774Z,42.80
2018-11-14T06:36:50.978Z,44.43
2018-11-14T06:39:19.444Z,39.13
2018-11-14T06:41:48.499Z,46.10
2018-11-14T06:44:17.543Z,40.60
2018-11-14T06:46:45.780Z,75.33
2018-11-14T06:49:13.972Z,55.67
2018-11-14T06:51:42.205Z,66.00
2018-11-14T06:54:10.636Z,74.03
2018-11-14T06:56:39.196Z,68.97
2018-11-14T06:59:07.740Z,25.80
2018-11-14T07:01:36.805Z,19.37
2018-11-14T07:04:05.042Z,25.73
2018-11-14T07:06:33.235Z,31.43
2018-11-14T07:09:01.419Z,37.77
2018-11-14T07:11:29.576Z,21.07
2018-11-14T07:13:57.740Z,25.73
2018-11-14T07:16:26.437Z,19.03
2018-11-14T07:18:54.676Z,18.33
2018-11-14T07:21:22.880Z,14.40
2018-11-14T07:23:51.038Z,13.07
2018-11-14T07:26:20.234Z,10.30
2018-11-14T07:28:48.390Z,15.07
2018-11-14T07:31:16.587Z,17.20
2018-11-14T07:33:44.787Z,11.57
2018-11-14T07:36:12.954Z,15.10
2018-11-14T07:38:49.310Z,22.27
2018-11-14T07:41:21.608Z,11.87
2018-11-14T07:43:50.886Z,10.73
2018-11-14T07:46:19.401Z,10.50
2018-11-14T07:48:48.521Z,10.33
2018-11-14T07:51:16.690Z,19.00
2018-11-14T07:53:44.875Z,23.47
2018-11-14T07:56:13.107Z,15.40
2018-11-14T07:58:41.331Z,18.60
2018-11-14T08:01:09.574Z,15.13
2018-11-14T08:03:37.751Z,20.77
2018-11-14T08:06:05.916Z,34.57
2018-11-14T08:08:34.090Z,24.83
2018-11-14T08:11:02.252Z,16.40
2018-11-14T08:13:31.570Z,42.80
2018-11-14T08:16:00.550Z,22.90
2018-11-14T08:18:28.735Z,17.60
2018-11-14T08:20:57.512Z,28.23
2018-11-14T08:23:25.682Z,24.73
2018-11-14T08:25:54.048Z,29.30
2018-11-14T08:28:22.202Z,45.50
2018-11-14T08:30:50.371Z,32.37
2018-11-14T08:33:18.573Z,44.07
2018-11-14T08:35:46.758Z,54.00
2018-11-14T08:38:14.944Z,43.00
2018-11-14T08:40:43.133Z,65.03
2018-11-14T08:43:11.330Z,69.33
2018-11-14T08:45:39.509Z,75.87
2018-11-14T08:48:08.486Z,64.70
2018-11-14T08:50:36.679Z,49.07
2018-11-14T08:53:05.499Z,79.33
2018-11-14T08:55:33.667Z,65.87
2018-11-14T08:58:01.943Z,71.43
2018-11-14T09:00:30.459Z,76.33
2018-11-14T09:02:58.633Z,68.00
2018-11-14T09:05:26.790Z,51.63
2018-11-14T09:07:55.033Z,59.10
2018-11-14T09:10:24.406Z,95.03
2018-11-14T09:12:52.618Z,70.43
2018-11-14T09:15:21.966Z,39.30
2018-11-14T09:17:50.340Z,47.87
2018-11-14T09:20:23.747Z,20.03
2018-11-14T09:22:51.958Z,48.60
2018-11-14T09:25:24.710Z,38.03
2018-11-14T09:27:52.878Z,53.00
2018-11-14T09:30:22.283Z,29.87
2018-11-14T09:32:50.491Z,25.93
2018-11-14T09:35:19.745Z,34.97
2018-11-14T09:37:47.911Z,34.47
2018-11-14T09:40:17.650Z,41.77
2018-11-14T09:42:45.838Z,33.83
2018-11-14T09:45:15.465Z,24.60
2018-11-14T09:47:43.621Z,39.73
2018-11-14T09:50:16.945Z,35.67
2018-11-14T09:52:46.499Z,42.97
2018-11-14T09:55:14.660Z,50.53
2018-11-14T09:57:43.632Z,41.73
2018-11-14T10:00:14.590Z,29.53
2018-11-14T10:02:43.554Z,33.17
2018-11-14T10:05:14.195Z,63.13
2018-11-14T10:07:42.752Z,106.23
2018-11-14T10:10:12.122Z,54.20
2018-11-14T10:12:41.258Z,152.03
2018-11-14T10:15:12.655Z,34.70
2018-11-14T10:17:41.504Z,79.30
2018-11-14T10:20:12.036Z,106.73
2018-11-14T10:22:42.400Z,69.03
2018-11-14T10:25:11.210Z,79.37
2018-11-14T10:27:40.162Z,59.27
2018-11-14T10:30:12.176Z,28.50
2018-11-14T10:32:43.204Z,80.13
2018-11-14T10:35:11.951Z,53.70
2018-11-14T10:37:40.480Z,41.90
2018-11-14T10:40:11.783Z,46.60
2018-11-14T10:42:40.098Z,40.93
2018-11-14T10:45:09.713Z,36.87
2018-11-14T10:47:37.917Z,30.83
2018-11-14T10:50:08.193Z,31.53
2018-11-14T10:52:36.579Z,35.70
2018-11-14T10:55:05.558Z,29.00
2018-11-14T10:57:33.741Z,27.40
2018-11-14T11:00:07.787Z,33.03
2018-11-14T11:02:41.491Z,30.80
2018-11-14T11:05:15.018Z,28.17
2018-11-14T11:07:48.624Z,27.63
2018-11-14T11:10:23.201Z,25.80
2018-11-14T11:12:56.548Z,31.17
2018-11-14T11:15:30.225Z,22.10
2018-11-14T11:18:00.755Z,25.53
2018-11-14T11:20:28.942Z,25.43
2018-11-14T11:22:57.138Z,21.07
2018-11-14T11:25:26.311Z,18.70
2018-11-14T11:27:54.527Z,16.73
2018-11-14T11:30:22.716Z,19.33
2018-11-14T11:32:50.953Z,18.80
2018-11-14T11:35:19.216Z,19.67
2018-11-14T11:37:47.387Z,17.60
2018-11-14T11:40:15.592Z,21.13
2018-11-14T11:42:43.870Z,22.30
2018-11-14T11:45:12.055Z,21.40
2018-11-14T11:47:40.365Z,23.10
2018-11-14T11:50:08.549Z,21.43
2018-11-14T11:52:36.739Z,36.97
2018-11-14T11:55:05.770Z,22.37
2018-11-14T11:57:33.957Z,25.50
2018-11-14T12:00:02.242Z,27.27
2018-11-14T12:02:30.321Z,34.60
2018-11-14T12:04:58.515Z,27.60
2018-11-14T12:07:26.682Z,28.03
2018-11-14T12:09:54.858Z,21.83
2018-11-14T12:12:23.055Z,24.83
2018-11-14T12:14:51.238Z,23.50
2018-11-14T12:17:19.419Z,31.77
2018-11-14T12:19:47.626Z,34.73
2018-11-14T12:22:16.232Z,30.53
2018-11-14T12:24:44.411Z,31.63
2018-11-14T12:27:12.603Z,49.30
2018-11-14T12:29:40.796Z,186.73
2018-11-14T12:32:08.999Z,28.77
2018-11-14T12:34:37.253Z,29.17
2018-11-14T12:37:05.425Z,43.57
2018-11-14T12:39:33.618Z,159.90
2018-11-14T12:42:01.781Z,49.20
2018-11-14T12:44:30.174Z,69.73
2018-11-14T12:46:58.361Z,36.00
2018-11-14T12:49:26.576Z,34.73
2018-11-14T12:51:55.746Z,37.23
2018-11-14T12:54:23.918Z,33.63
2018-11-14T12:56:52.070Z,31.73
2018-11-14T12:59:20.327Z,131.30
2018-11-14T13:01:48.468Z,134.07
2018-11-14T13:04:20.125Z,37.40
2018-11-14T13:06:48.393Z,115.40
2018-11-14T13:09:16.544Z,35.97
2018-11-14T13:11:44.862Z,56.07
2018-11-14T13:14:13.042Z,36.10
2018-11-14T13:16:41.320Z,32.50
2018-11-14T13:19:09.500Z,32.00
2018-11-14T13:21:37.666Z,33.57
2018-11-14T13:24:05.873Z,34.13
2018-11-14T13:26:34.040Z,47.43
2018-11-14T13:29:02.348Z,32.80
2018-11-14T13:31:30.534Z,29.63
2018-11-14T13:33:58.730Z,37.83
2018-11-14T13:36:26.930Z,46.43
2018-11-14T13:38:55.119Z,32.57
2018-11-14T13:41:23.610Z,36.60
2018-11-14T13:43:51.878Z,30.90
2018-11-14T13:46:20.818Z,28.17
2018-11-14T13:48:49.225Z,25.70
2018-11-14T13:51:17.489Z,32.17
2018-11-14T13:53:45.581Z,36.90
2018-11-14T13:56:13.736Z,100.50
2018-11-14T13:58:41.959Z,37.67
2018-11-14T14:01:10.136Z,30.23
2018-11-14T14:03:38.294Z,27.47
2018-11-14T14:06:06.490Z,26.40
2018-11-14T14:08:34.651Z,53.50
2018-11-14T14:11:02.811Z,29.43
2018-11-14T14:13:31.010Z,27.93
2018-11-14T14:15:59.251Z,33.70
2018-11-14T14:18:27.410Z,32.57
2018-11-14T14:20:55.636Z,32.57
2018-11-14T14:23:23.803Z,31.87
2018-11-14T14:25:51.966Z,33.27
2018-11-14T14:28:20.175Z,65.73
2018-11-14T14:30:48.361Z,43.97
2018-11-14T14:33:17.394Z,43.73
2018-11-14T14:35:45.542Z,32.70
2018-11-14T14:38:13.823Z,40.97
2018-11-14T14:40:42.940Z,36.87
2018-11-14T14:43:11.102Z,44.67
2018-11-14T14:45:39.288Z,43.97
2018-11-14T14:48:07.507Z,45.30
2018-11-14T14:50:35.680Z,47.73
2018-11-14T14:53:03.895Z,47.67
2018-11-14T14:55:32.500Z,39.47
2018-11-14T14:58:00.662Z,44.87
2018-11-14T15:00:28.955Z,45.87
2018-11-14T15:02:57.278Z,51.77
2018-11-14T15:05:25.460Z,57.37
2018-11-14T15:07:53.675Z,58.43
2018-11-14T15:10:36.475Z,53.30
2018-11-14T15:15:50.563Z,57.90
2018-11-14T15:18:18.742Z,57.07
2018-11-14T15:20:47.777Z,63.67
2018-11-14T15:23:15.976Z,61.07
2018-11-14T15:25:44.134Z,61.00
2018-11-14T15:28:18.574Z,77.97
2018-11-14T15:30:46.744Z,72.20
2018-11-14T15:33:14.904Z,121.20
2018-11-14T15:35:43.076Z,145.97
2018-11-14T15:38:11.254Z,202.83
2018-11-14T15:40:39.435Z,140.70
2018-11-14T15:43:07.626Z,88.33
2018-11-14T15:45:35.824Z,107.67
2018-11-14T15:48:03.998Z,92.93
2018-11-14T15:50:32.186Z,148.40
2018-11-14T15:53:00.421Z,127.47
2018-11-14T15:55:28.633Z,93.20
2018-11-14T15:57:57.231Z,186.33
2018-11-14T16:00:26.569Z,62.50
2018-11-14T16:02:54.939Z,89.17
2018-11-14T16:05:24.566Z,73.50
2018-11-14T16:07:54.917Z,95.10
2018-11-14T16:10:24.169Z,41.83
2018-11-14T16:12:52.341Z,47.97
2018-11-14T16:15:22.972Z,49.17
2018-11-14T16:17:51.175Z,71.77
2018-11-14T16:20:21.563Z,88.37
2018-11-14T16:22:49.798Z,55.47
2018-11-14T16:25:19.100Z,114.90
2018-11-14T16:27:48.259Z,188.50
2018-11-14T16:30:18.981Z,101.33
2018-11-14T16:32:48.166Z,85.57
2018-11-14T16:35:17.134Z,56.23
2018-11-14T16:37:45.341Z,51.27
2018-11-14T16:40:16.273Z,38.10
2018-11-14T16:42:44.467Z,50.43
2018-11-14T16:45:13.357Z,51.77
2018-11-14T16:47:41.822Z,56.77
2018-11-14T16:50:11.749Z,47.73
2018-11-14T16:52:39.990Z,42.20
2018-11-14T16:55:09.225Z,37.03
2018-11-14T16:57:38.418Z,43.10
2018-11-14T17:00:09.450Z,53.97
2018-11-14T17:02:37.646Z,47.80
2018-11-14T17:05:05.836Z,47.23
2018-11-14T17:07:34.043Z,42.57
2018-11-14T17:10:02.257Z,47.53
2018-11-14T17:12:30.413Z,46.13
2018-11-14T17:14:59.683Z,47.10
2018-11-14T17:17:27.825Z,45.27
2018-11-14T17:19:56.013Z,45.77
2018-11-14T17:22:24.911Z,43.40
2018-11-14T17:24:53.067Z,45.13
2018-11-14T17:27:22.251Z,35.37
2018-11-14T17:29:50.520Z,38.93
2018-11-14T17:32:19.786Z,30.50
2018-11-14T17:34:47.987Z,30.50
2018-11-14T17:37:16.174Z,31.57
2018-11-14T17:39:44.385Z,25.93
2018-11-14T17:42:12.769Z,27.40
2018-11-14T17:44:40.779Z,26.73
2018-11-14T17:47:08.985Z,22.70
2018-11-14T17:49:37.241Z,24.27
2018-11-14T17:52:05.477Z,24.83
2018-11-14T17:54:33.709Z,19.43
2018-11-14T17:57:07.697Z,19.20
2018-11-14T17:59:36.183Z,22.00
2018-11-14T18:02:04.706Z,21.27
2018-11-14T18:04:32.891Z,19.97
2018-11-14T18:07:01.124Z,18.97
2018-11-14T18:09:29.362Z,21.93
2018-11-14T18:12:06.842Z,20.17
2018-11-14T18:14:44.903Z,19.97
2018-11-14T18:17:13.712Z,17.97
2018-11-14T18:19:50.293Z,25.90
2018-11-14T18:22:28.376Z,20.00
2018-11-14T18:25:06.370Z,19.63
2018-11-14T18:27:36.019Z,28.10
2018-11-14T18:30:05.851Z,22.33
2018-11-14T18:32:33.983Z,23.73
2018-11-14T18:35:02.154Z,23.90
2018-11-14T18:37:30.388Z,24.70
2018-11-14T18:39:58.585Z,23.97
2018-11-14T18:42:26.777Z,30.50
2018-11-14T18:44:54.962Z,27.70
2018-11-14T18:47:23.150Z,27.50
2018-11-14T18:49:51.375Z,27.40
2018-11-14T18:52:19.578Z,29.40
2018-11-14T18:54:47.815Z,29.40
2018-11-14T18:57:16.009Z,29.00
2018-11-14T18:59:44.491Z,29.07
2018-11-14T19:02:12.704Z,27.43
2018-11-14T19:04:40.894Z,31.80
2018-11-14T19:07:09.904Z,34.70
2018-11-14T19:09:38.171Z,33.30
2018-11-14T19:12:06.631Z,33.10
2018-11-14T19:14:34.930Z,37.00
2018-11-14T19:17:03.254Z,33.90
2018-11-14T19:19:31.949Z,36.53
2018-11-14T19:22:00.226Z,33.67
2018-11-14T19:24:33.421Z,34.00
2018-11-14T19:27:01.598Z,32.20
2018-11-14T19:29:29.846Z,31.03
2018-11-14T19:31:58.057Z,31.97
2018-11-14T19:34:26.562Z,28.07
2018-11-14T19:36:54.774Z,31.40
2018-11-14T19:39:23.519Z,29.70
2018-11-14T19:41:51.781Z,33.80
2018-11-14T19:44:20.344Z,34.07
2018-11-14T19:46:52.520Z,34.57
2018-11-14T19:49:21.144Z,36.17
2018-11-14T19:51:49.643Z,32.13
2018-11-14T19:54:19.184Z,36.23
2018-11-14T19:56:48.207Z,34.83
2018-11-14T19:59:17.130Z,32.67
2018-11-14T20:01:46.730Z,34.43
2018-11-14T20:04:15.651Z,33.03
2018-11-14T20:06:43.910Z,31.77
2018-11-14T20:09:12.995Z,37.27
2018-11-14T20:11:45.761Z,33.07
2018-11-14T20:14:14.342Z,35.50
2018-11-14T20:16:43.577Z,102.43
2018-11-14T20:19:12.402Z,84.70
2018-11-14T20:21:40.786Z,64.87
2018-11-14T20:24:09.024Z,63.10
2018-11-14T20:26:41.111Z,47.00
2018-11-14T20:29:10.269Z,49.03
2018-11-14T20:31:40.075Z,42.23
2018-11-14T20:34:10.779Z,37.57
2018-11-14T20:36:38.972Z,37.30
2018-11-14T20:39:09.768Z,40.63
2018-11-14T20:41:37.979Z,36.80
2018-11-14T20:44:07.146Z,35.87
2018-11-14T20:46:35.382Z,34.93
2018-11-14T20:49:03.737Z,37.33
2018-11-14T20:51:32.077Z,36.37
2018-11-14T20:54:01.277Z,36.47
2018-11-14T20:56:31.589Z,35.87
2018-11-14T20:59:00.272Z,37.50
2018-11-14T21:01:29.287Z,36.37
2018-11-14T21:03:58.264Z,32.60
2018-11-14T21:06:26.841Z,33.70
2018-11-14T21:08:55.053Z,37.90
2018-11-14T21:11:23.822Z,33.77
2018-11-14T21:13:52.473Z,36.03
2018-11-14T21:16:21.592Z,34.97
2018-11-14T21:18:53.470Z,36.17
2018-11-14T21:21:21.663Z,34.27
2018-11-14T21:23:49.869Z,35.47
2018-11-14T21:26:19.399Z,37.17
2018-11-14T21:28:47.591Z,35.17
2018-11-14T21:31:16.840Z,34.93
2018-11-14T21:33:45.010Z,34.87
2018-11-14T21:36:13.265Z,33.07
2018-11-14T21:38:43.266Z,33.70
2018-11-14T21:41:11.478Z,34.87
2018-11-14T21:43:40.015Z,33.80
2018-11-14T21:46:08.153Z,35.33
2018-11-14T21:48:37.175Z,35.07
2018-11-14T21:51:05.945Z,36.07
2018-11-14T21:53:34.259Z,36.87
2018-11-14T21:56:02.443Z,37.67
2018-11-14T21:58:31.498Z,36.20
2018-11-14T22:01:02.672Z,34.23
2018-11-14T22:03:30.850Z,37.27
2018-11-14T22:05:59.030Z,35.10
2018-11-14T22:08:27.207Z,39.00
2018-11-14T22:10:56.272Z,33.97
2018-11-14T22:13:24.434Z,35.83
2018-11-14T22:15:52.602Z,32.03
2018-11-14T22:18:21.691Z,34.30
2018-11-14T22:20:50.887Z,38.37
2018-11-14T22:23:19.066Z,37.03
2018-11-14T22:25:47.259Z,34.47
2018-11-14T22:28:15.778Z,35.73
2018-11-14T22:30:43.955Z,37.57
2018-11-14T22:33:12.126Z,37.10
2018-11-14T22:35:40.302Z,37.93
2018-11-14T22:38:08.482Z,37.53
2018-11-14T22:40:36.910Z,34.77
2018-11-14T22:43:05.115Z,40.43
2018-11-14T22:45:33.601Z,36.60
2018-11-14T22:48:01.770Z,37.07
2018-11-14T22:50:29.928Z,33.87
2018-11-14T22:52:58.117Z,34.43
2018-11-14T22:55:26.958Z,37.40
2018-11-14T22:57:55.506Z,36.60
2018-11-14T23:00:32.415Z,40.80
2018-11-14T23:03:03.319Z,37.37
2018-11-14T23:05:31.553Z,35.53
2018-11-14T23:08:00.174Z,37.47
2018-11-14T23:10:28.664Z,35.93
2018-11-14T23:12:56.902Z,34.87
2018-11-14T23:15:25.511Z,38.57
2018-11-14T23:17:54.987Z,33.70
2018-11-14T23:20:23.207Z,35.57
2018-11-14T23:22:51.788Z,34.23
2018-11-14T23:25:20.469Z,31.20
2018-11-14T23:27:49.889Z,32.50
2018-11-14T23:30:19.159Z,32.80
2018-11-14T23:32:49.681Z,34.57
2018-11-14T23:35:19.297Z,33.07
2018-11-14T23:37:53.716Z,33.40
2018-11-14T23:40:22.004Z,31.47
2018-11-14T23:42:50.816Z,32.60
2018-11-14T23:45:19.933Z,31.97
2018-11-14T23:47:49.236Z,31.43
2018-11-14T23:50:18.796Z,33.40
2018-11-14T23:52:48.866Z,33.87
2018-11-14T23:55:18.750Z,32.80
2018-11-14T23:57:47.063Z,30.13
